createdAt,value
2022-10-11T00:00:48.229Z,10.02
2022-10-11T00:02:56.708Z,8.27
2022-10-11T00:05:03.684Z,9.05
2022-10-11T00:07:10.815Z,8.27
2022-10-11T00:09:17.791Z,8.00
2022-10-11T00:11:24.973Z,7.97
2022-10-11T00:13:31.853Z,7.78
2022-10-11T00:15:38.825Z,7.78
2022-10-11T00:17:46.110Z,7.78
2022-10-11T00:19:54.674Z,7.68
2022-10-11T00:22:01.904Z,8.23
2022-10-11T00:24:09.343Z,6.88
2022-10-11T00:26:16.472Z,6.43
2022-10-11T00:28:23.325Z,6.20
2022-10-11T00:30:30.427Z,5.82
2022-10-11T00:32:37.817Z,5.80
2022-10-11T00:34:45.098Z,5.95
2022-10-11T00:36:53.712Z,5.57
2022-10-11T00:39:02.024Z,5.05
2022-10-11T00:41:09.253Z,5.70
2022-10-11T00:43:19.764Z,5.30
2022-10-11T00:46:05.242Z,5.43
2022-10-11T00:48:23.795Z,5.55
2022-10-11T00:50:34.097Z,5.65
2022-10-11T00:52:46.865Z,5.30
2022-10-11T00:54:56.857Z,5.20
2022-10-11T00:57:06.648Z,6.10
2022-10-11T00:59:18.591Z,5.47
2022-10-11T01:03:34.185Z,5.05
2022-10-11T01:05:43.056Z,5.63
2022-10-11T01:07:53.004Z,5.53
2022-10-11T01:09:59.977Z,4.72
2022-10-11T01:12:14.942Z,5.07
2022-10-11T01:14:56.735Z,5.07
2022-10-11T01:17:11.085Z,4.88
2022-10-11T01:19:36.548Z,5.13
2022-10-11T01:21:50.689Z,4.80
2022-10-11T01:24:27.158Z,4.43
2022-10-11T01:27:07.673Z,4.60
2022-10-11T01:29:28.932Z,4.47
2022-10-11T01:31:43.846Z,4.57
2022-10-11T01:33:56.146Z,5.10
2022-10-11T01:36:12.646Z,4.47
2022-10-11T01:38:26.384Z,4.78
2022-10-11T01:40:37.813Z,5.00
2022-10-11T01:42:46.174Z,4.70
2022-10-11T01:44:55.145Z,5.13
2022-10-11T01:47:03.761Z,8.85
2022-10-11T01:49:11.198Z,4.95
2022-10-11T01:51:18.073Z,4.95
2022-10-11T01:54:00.941Z,5.15
2022-10-11T01:56:20.516Z,5.30
2022-10-11T01:58:42.602Z,5.07
2022-10-11T02:00:57.510Z,4.97
2022-10-11T02:03:23.020Z,5.00
2022-10-11T02:05:38.705Z,5.55
2022-10-11T02:07:48.901Z,5.20
2022-10-11T02:10:00.691Z,5.00
2022-10-11T02:12:12.689Z,5.20
2022-10-11T02:14:23.660Z,5.07
2022-10-11T02:16:34.422Z,4.95
2022-10-11T02:18:48.668Z,4.72
2022-10-11T02:20:56.931Z,4.70
2022-10-11T02:23:08.870Z,4.97
2022-10-11T02:25:20.403Z,4.25
2022-10-11T02:27:31.169Z,4.85
2022-10-11T02:29:42.857Z,4.57
2022-10-11T02:31:51.624Z,4.63
2022-10-11T02:34:03.568Z,4.70
2022-10-11T02:36:16.228Z,5.18
2022-10-11T02:38:26.686Z,4.68
2022-10-11T02:40:36.683Z,4.85
2022-10-11T02:42:48.268Z,4.78
2022-10-11T02:47:08.418Z,4.55
2022-10-11T02:49:17.903Z,4.50
2022-10-11T02:51:24.829Z,4.80
2022-10-11T02:53:32.062Z,4.25
2022-10-11T02:55:39.038Z,4.75
2022-10-11T02:57:45.760Z,5.00
2022-10-11T02:59:52.738Z,4.70
2022-10-11T03:02:00.309Z,4.70
2022-10-11T03:04:07.201Z,4.28
2022-10-11T03:06:16.074Z,5.00
2022-10-11T03:08:23.254Z,5.22
2022-10-11T03:10:30.591Z,4.50
2022-10-11T03:12:37.568Z,4.68
2022-10-11T03:14:44.598Z,4.93
2022-10-11T03:16:51.658Z,4.63
2022-10-11T03:18:58.755Z,4.38
2022-10-11T03:21:05.678Z,4.35
2022-10-11T03:23:15.063Z,4.63
2022-10-11T03:25:22.193Z,4.18
2022-10-11T03:27:29.733Z,4.53
2022-10-11T03:29:36.764Z,5.07
2022-10-11T03:31:43.736Z,4.55
2022-10-11T03:33:50.714Z,4.50
2022-10-11T03:35:57.844Z,4.70
2022-10-11T03:38:04.822Z,4.60
2022-10-11T03:40:15.130Z,4.50
2022-10-11T03:42:22.003Z,4.68
2022-10-11T03:44:29.591Z,4.65
2022-10-11T03:46:36.978Z,4.80
2022-10-11T03:48:43.954Z,4.63
2022-10-11T03:50:51.549Z,4.68
2022-10-11T03:52:58.830Z,5.20
2022-10-11T03:55:05.909Z,4.32
2022-10-11T03:57:14.832Z,4.75
2022-10-11T03:59:21.708Z,4.03
2022-10-11T04:01:29.021Z,4.40
2022-10-11T04:03:35.916Z,4.65
2022-10-11T04:05:43.253Z,4.25
2022-10-11T04:07:50.484Z,4.03
2022-10-11T04:09:57.717Z,4.93
2022-10-11T04:12:04.797Z,4.50
2022-10-11T04:14:13.565Z,4.45
2022-10-11T04:16:20.236Z,3.78
2022-10-11T04:18:27.673Z,3.95
2022-10-11T04:20:34.649Z,4.60
2022-10-11T04:22:41.831Z,4.30
2022-10-11T04:24:48.808Z,4.25
2022-10-11T04:26:55.683Z,4.70
2022-10-11T04:29:02.505Z,4.25
2022-10-11T04:31:11.119Z,4.40
2022-10-11T04:33:17.840Z,4.22
2022-10-11T04:35:24.818Z,4.55
2022-10-11T04:37:31.593Z,3.88
2022-10-11T04:39:39.182Z,4.50
2022-10-11T04:41:46.055Z,3.72
2022-10-11T04:43:53.032Z,4.65
2022-10-11T04:45:59.863Z,4.18
2022-10-11T04:48:09.033Z,3.95
2022-10-11T04:50:15.907Z,4.03
2022-10-11T04:52:25.677Z,4.28
2022-10-11T04:54:32.985Z,3.92
2022-10-11T04:56:40.166Z,4.55
2022-10-11T04:58:49.039Z,4.38
2022-10-11T05:00:55.861Z,4.60
2022-10-11T05:03:02.788Z,4.30
2022-10-11T05:05:12.476Z,4.32
2022-10-11T05:07:19.403Z,4.28
2022-10-11T05:09:26.330Z,4.30
2022-10-11T05:11:33.320Z,4.18
2022-10-11T05:13:40.845Z,4.45
2022-10-11T05:15:47.822Z,4.57
2022-10-11T05:17:54.748Z,4.00
2022-10-11T05:20:01.576Z,3.90
2022-10-11T05:22:09.982Z,4.35
2022-10-11T05:24:16.754Z,4.07
2022-10-11T05:26:24.653Z,4.65
2022-10-11T05:28:32.297Z,4.03
2022-10-11T05:30:39.271Z,4.13
2022-10-11T05:32:46.609Z,4.30
2022-10-11T05:34:53.480Z,3.83
2022-10-11T05:37:00.612Z,4.25
2022-10-11T05:39:09.329Z,4.47
2022-10-11T05:41:17.995Z,4.28
2022-10-11T05:43:24.766Z,4.10
2022-10-11T05:45:33.280Z,4.18
2022-10-11T05:47:40.205Z,4.20
2022-10-11T05:49:47.133Z,4.35
2022-10-11T05:51:54.313Z,4.82
2022-10-11T05:54:01.392Z,4.63
2022-10-11T05:56:22.502Z,5.20
2022-10-11T05:58:29.631Z,4.95
2022-10-11T06:00:39.528Z,4.45
2022-10-11T06:02:46.246Z,4.50
2022-10-11T06:04:53.582Z,4.65
2022-10-11T06:07:00.558Z,4.60
2022-10-11T06:09:07.842Z,4.30
2022-10-11T06:11:18.968Z,4.20
2022-10-11T06:13:26.506Z,4.60
2022-10-11T06:15:33.382Z,4.57
2022-10-11T06:17:40.512Z,4.65
2022-10-11T06:19:47.181Z,4.43
2022-10-11T06:21:54.569Z,4.53
2022-10-11T06:24:03.405Z,4.40
2022-10-11T06:26:11.952Z,4.45
2022-10-11T06:28:20.598Z,4.38
2022-10-11T06:30:27.434Z,4.50
2022-10-11T06:32:34.932Z,3.97
2022-10-11T06:34:42.112Z,4.03
2022-10-11T06:36:48.987Z,4.00
2022-10-11T06:38:56.731Z,4.25
2022-10-11T06:41:14.052Z,4.57
2022-10-11T06:43:22.971Z,4.78
2022-10-11T06:45:29.796Z,4.65
2022-10-11T06:47:37.183Z,4.45
2022-10-11T06:49:44.364Z,4.45
2022-10-11T06:51:51.709Z,4.25
2022-10-11T06:54:00.672Z,4.60
2022-10-11T06:56:08.673Z,4.40
2022-10-11T06:58:16.171Z,4.28
2022-10-11T07:00:24.828Z,4.32
2022-10-11T07:02:31.660Z,4.93
2022-10-11T07:04:38.679Z,4.03
2022-10-11T07:06:45.862Z,4.28
2022-10-11T07:08:53.094Z,4.18
2022-10-11T07:11:04.372Z,4.43
2022-10-11T07:13:17.003Z,4.18
2022-10-11T07:15:26.265Z,4.20
2022-10-11T07:17:33.187Z,4.10
2022-10-11T07:19:40.223Z,4.35
2022-10-11T07:21:47.610Z,4.07
2022-10-11T07:23:55.104Z,4.38
2022-10-11T07:26:03.653Z,4.07
2022-10-11T07:28:10.770Z,4.43
2022-10-11T07:30:17.916Z,4.15
2022-10-11T07:32:26.888Z,4.30
2022-10-11T07:34:33.976Z,4.35
2022-10-11T07:36:41.356Z,4.63
2022-10-11T07:38:51.152Z,3.95
2022-10-11T07:40:58.842Z,4.28
2022-10-11T07:43:08.234Z,4.15
2022-10-11T07:45:15.817Z,4.13
2022-10-11T07:49:44.825Z,4.40
2022-10-11T07:51:51.953Z,4.10
2022-10-11T07:54:03.377Z,4.30
2022-10-11T07:56:14.920Z,4.07
2022-10-11T07:58:21.894Z,4.38
2022-10-11T08:00:29.204Z,4.40
2022-10-11T08:02:36.572Z,4.55
2022-10-11T08:04:45.334Z,4.47
2022-10-11T08:06:53.437Z,4.82
2022-10-11T08:09:02.461Z,4.45
2022-10-11T08:11:09.695Z,4.65
2022-10-11T08:13:16.672Z,4.47
2022-10-11T08:15:24.262Z,4.93
2022-10-11T08:17:32.522Z,4.90
2022-10-11T08:19:39.548Z,4.47
2022-10-11T08:21:48.265Z,5.00
2022-10-11T08:23:55.260Z,4.32
2022-10-11T08:26:02.431Z,4.80
2022-10-11T08:28:10.713Z,5.00
2022-10-11T08:30:18.024Z,4.53
2022-10-11T08:32:25.042Z,4.90
2022-10-11T08:34:31.917Z,5.05
2022-10-11T08:36:39.764Z,4.20
2022-10-11T08:38:49.713Z,4.35
2022-10-11T08:40:58.890Z,4.20
2022-10-11T08:43:09.654Z,4.95
2022-10-11T08:45:30.507Z,4.35
2022-10-11T08:47:42.040Z,4.37
2022-10-11T08:49:49.026Z,5.28
2022-10-11T08:52:03.367Z,4.38
2022-10-11T08:54:19.511Z,4.57
2022-10-11T08:56:29.457Z,4.75
2022-10-11T08:58:42.730Z,5.00
2022-10-11T09:00:52.369Z,5.05
2022-10-11T09:03:08.880Z,5.22
2022-10-11T09:05:20.044Z,4.80
2022-10-11T09:07:42.586Z,4.57
2022-10-11T09:10:05.743Z,5.45
2022-10-11T09:12:21.737Z,5.32
2022-10-11T09:14:59.017Z,5.88
2022-10-11T09:17:12.701Z,4.95
2022-10-11T09:19:44.817Z,4.72
2022-10-11T09:21:59.320Z,4.82
2022-10-11T09:24:40.152Z,5.28
2022-10-11T09:26:57.358Z,4.75
2022-10-11T09:29:13.859Z,4.55
2022-10-11T09:31:20.681Z,5.07
2022-10-11T09:33:36.414Z,5.00
2022-10-11T09:35:46.311Z,4.97
2022-10-11T09:38:00.760Z,5.43
2022-10-11T09:40:20.285Z,5.35
2022-10-11T09:42:29.050Z,5.18
2022-10-11T09:44:39.458Z,5.47
2022-10-11T09:46:47.766Z,4.93
2022-10-11T09:48:57.664Z,4.55
2022-10-11T09:51:10.269Z,5.55
2022-10-11T09:53:17.354Z,5.22
2022-10-11T09:55:39.839Z,5.40
2022-10-11T09:57:58.234Z,5.20
2022-10-11T10:00:09.669Z,5.53
2022-10-11T10:02:24.886Z,6.07
2022-10-11T10:04:31.760Z,6.15
2022-10-11T10:06:39.660Z,5.90
2022-10-11T10:08:48.324Z,5.80
2022-10-11T10:11:03.901Z,5.57
2022-10-11T10:13:24.501Z,5.22
2022-10-11T10:15:34.700Z,4.88
2022-10-11T10:17:42.447Z,5.55
2022-10-11T10:19:53.878Z,6.10
2022-10-11T10:22:01.060Z,5.28
2022-10-11T10:24:11.877Z,5.88
2022-10-11T10:26:22.488Z,6.83
2022-10-11T10:28:31.882Z,11.07
2022-10-11T10:30:38.798Z,10.90
2022-10-11T10:32:52.072Z,11.20
2022-10-11T10:35:05.959Z,9.43
2022-10-11T10:37:30.248Z,8.07
2022-10-11T10:39:43.832Z,6.85
2022-10-11T10:41:51.568Z,6.80
2022-10-11T10:44:02.590Z,6.43
2022-10-11T10:46:36.913Z,6.25
2022-10-11T10:51:27.470Z,6.28
2022-10-11T10:53:40.695Z,6.25
2022-10-11T10:55:50.538Z,6.78
2022-10-11T10:58:18.883Z,6.72
2022-10-11T11:00:28.197Z,6.55
2022-10-11T11:02:43.120Z,7.78
2022-10-11T11:04:54.181Z,7.03
2022-10-11T11:07:07.407Z,7.60
2022-10-11T11:09:27.900Z,7.50
2022-10-11T11:11:50.032Z,7.55
2022-10-11T11:14:03.459Z,7.32
2022-10-11T11:16:21.803Z,7.40
2022-10-11T11:18:37.483Z,7.07
2022-10-11T11:20:55.366Z,7.88
2022-10-11T11:23:11.297Z,7.60
2022-10-11T11:25:29.939Z,8.27
2022-10-11T11:27:54.032Z,8.48
2022-10-11T11:30:07.769Z,9.15
2022-10-11T11:32:26.622Z,8.40
2022-10-11T11:34:39.846Z,8.73
2022-10-11T11:36:50.151Z,8.60
2022-10-11T11:39:04.857Z,8.30
2022-10-11T11:41:16.596Z,8.35
2022-10-11T11:43:26.938Z,8.35
2022-10-11T11:45:40.382Z,8.68
2022-10-11T11:47:55.599Z,8.57
2022-10-11T11:50:05.114Z,9.10
2022-10-11T11:52:17.387Z,9.73
2022-10-11T11:54:38.906Z,9.52
2022-10-11T12:01:27.608Z,9.77
2022-10-11T12:03:44.139Z,10.15
2022-10-11T12:06:26.090Z,11.38
2022-10-11T12:08:36.697Z,12.73
2022-10-11T12:10:58.881Z,12.98
2022-10-11T12:13:22.189Z,12.98
2022-10-11T12:15:30.241Z,13.93
2022-10-11T12:17:37.517Z,12.98
2022-10-11T12:20:01.854Z,12.63
2022-10-11T12:22:39.557Z,13.00
2022-10-11T12:24:57.951Z,12.13
2022-10-11T12:27:42.305Z,13.13
2022-10-11T12:29:53.477Z,13.13
2022-10-11T12:32:35.432Z,12.75
2022-10-11T12:34:46.090Z,12.43
2022-10-11T12:36:53.892Z,13.18
2022-10-11T12:39:34.296Z,12.63
2022-10-11T12:41:54.635Z,11.20
2022-10-11T12:44:24.550Z,11.15
2022-10-11T12:47:03.825Z,10.93
2022-10-11T12:49:40.955Z,10.48
2022-10-11T12:52:00.130Z,11.40
2022-10-11T12:54:36.119Z,12.90
2022-10-11T12:56:51.869Z,12.88
2022-10-11T12:59:07.243Z,13.95
2022-10-11T13:01:25.121Z,12.82
2022-10-11T13:03:33.896Z,12.30
2022-10-11T13:05:52.456Z,12.07
2022-10-11T13:08:06.180Z,12.25
2022-10-11T13:10:18.581Z,13.80
2022-10-11T13:12:26.991Z,13.23
2022-10-11T13:14:38.066Z,13.70
2022-10-11T13:16:59.224Z,14.05
2022-10-11T13:19:09.697Z,14.45
2022-10-11T13:21:23.200Z,13.38
2022-10-11T13:23:39.868Z,14.05
2022-10-11T13:25:47.151Z,14.75
2022-10-11T13:27:56.587Z,15.48
2022-10-11T13:30:05.048Z,14.77
2022-10-11T13:32:17.351Z,14.50
2022-10-11T13:34:26.119Z,14.25
2022-10-11T13:36:33.403Z,14.55
2022-10-11T13:38:42.426Z,15.25
2022-10-11T13:40:51.159Z,14.63
2022-10-11T13:42:58.792Z,14.85
2022-10-11T13:45:08.016Z,14.80
2022-10-11T13:47:17.143Z,14.85
2022-10-11T13:49:38.507Z,15.70
2022-10-11T13:51:45.742Z,14.80
2022-10-11T13:54:05.620Z,15.18
2022-10-11T13:56:13.575Z,15.52
2022-10-11T13:58:28.892Z,16.17
2022-10-11T14:00:39.248Z,14.10
2022-10-11T14:02:52.825Z,15.60
2022-10-11T14:05:00.165Z,17.02
2022-10-11T14:07:10.361Z,17.33
2022-10-11T14:09:29.888Z,18.13
2022-10-11T14:11:39.424Z,19.10
2022-10-11T14:13:47.120Z,20.38
2022-10-11T14:16:04.013Z,26.38
2022-10-11T14:18:35.173Z,30.30
2022-10-11T14:20:43.530Z,32.78
2022-10-11T14:22:50.666Z,27.30
2022-10-11T14:24:59.277Z,20.98
2022-10-11T14:27:09.326Z,17.05
2022-10-11T14:29:24.096Z,16.77
2022-10-11T14:31:31.421Z,16.45
2022-10-11T14:33:38.451Z,17.73
2022-10-11T14:35:45.737Z,16.58
2022-10-11T14:37:53.271Z,16.25
2022-10-11T14:40:02.399Z,16.77
2022-10-11T14:42:09.275Z,15.90
2022-10-11T14:44:17.889Z,16.52
2022-10-11T14:46:28.096Z,15.27
2022-10-11T14:48:54.504Z,15.55
2022-10-11T14:51:04.368Z,15.55
2022-10-11T14:53:13.496Z,16.23
2022-10-11T14:55:22.522Z,14.95
2022-10-11T14:57:29.293Z,15.40
2022-10-11T14:59:37.616Z,15.73
2022-10-11T15:01:44.688Z,15.18
2022-10-11T15:03:51.657Z,15.82
2022-10-11T15:05:59.006Z,15.55
2022-10-11T15:08:10.628Z,14.63
2022-10-11T15:10:39.159Z,15.13
2022-10-11T15:12:46.139Z,13.77
2022-10-11T15:14:54.044Z,14.18
2022-10-11T15:17:00.961Z,13.77
2022-10-11T15:19:07.939Z,13.55
2022-10-11T15:21:27.782Z,13.98
2022-10-11T15:23:34.742Z,13.40
2022-10-11T15:25:44.793Z,12.10
2022-10-11T15:27:51.870Z,12.52
2022-10-11T15:29:58.644Z,12.13
2022-10-11T15:32:05.620Z,12.77
2022-10-11T15:34:12.391Z,12.50
2022-10-11T15:36:20.852Z,13.55
2022-10-11T15:38:28.904Z,12.63
2022-10-11T15:40:37.418Z,12.85
2022-10-11T15:42:45.995Z,12.82
2022-10-11T15:44:53.419Z,13.77
2022-10-11T15:47:00.196Z,13.40
2022-10-11T15:49:14.079Z,13.35
2022-10-11T15:51:21.161Z,12.57
2022-10-11T15:53:32.231Z,14.25
2022-10-11T15:55:41.410Z,13.82
2022-10-11T15:57:49.924Z,13.10
2022-10-11T15:59:56.798Z,13.48
2022-10-11T16:02:03.897Z,13.80
2022-10-11T16:04:10.804Z,13.60
2022-10-11T16:06:18.191Z,13.65
2022-10-11T16:08:25.067Z,13.55
2022-10-11T16:10:32.247Z,12.85
2022-10-11T16:12:39.325Z,13.57
2022-10-11T16:14:48.000Z,13.43
2022-10-11T16:16:54.865Z,13.98
2022-10-11T16:19:01.846Z,13.35
2022-10-11T16:21:11.228Z,13.15
2022-10-11T16:23:18.618Z,13.80
2022-10-11T16:25:26.409Z,14.02
2022-10-11T16:27:33.234Z,14.30
2022-10-11T16:29:40.106Z,13.40
2022-10-11T16:31:48.772Z,13.73
2022-10-11T16:33:56.209Z,12.75
2022-10-11T16:36:25.358Z,13.63
2022-10-11T16:38:35.515Z,14.10
2022-10-11T16:40:45.606Z,12.82
2022-10-11T16:43:07.648Z,13.00
2022-10-11T16:45:15.333Z,13.43
2022-10-11T16:47:23.986Z,13.02
2022-10-11T16:49:32.562Z,13.55
2022-10-11T16:51:39.435Z,12.65
2022-10-11T16:53:46.207Z,12.70
2022-10-11T16:55:53.287Z,11.85
2022-10-11T16:58:00.672Z,12.27
2022-10-11T17:00:09.647Z,12.23
2022-10-11T17:02:20.309Z,11.80
2022-10-11T17:04:28.874Z,12.10
2022-10-11T17:06:36.362Z,11.48
2022-10-11T17:08:43.288Z,12.70
2022-10-11T17:10:57.876Z,12.00
2022-10-11T17:13:04.820Z,12.32
2022-10-11T17:15:14.922Z,12.60
2022-10-11T17:17:22.153Z,11.98
2022-10-11T17:19:30.665Z,12.07
2022-10-11T17:21:37.488Z,12.48
2022-10-11T17:23:44.772Z,13.00
2022-10-11T17:25:51.595Z,12.30
2022-10-11T17:28:00.058Z,11.38
2022-10-11T17:30:07.239Z,12.05
2022-10-11T17:32:14.728Z,11.48
2022-10-11T17:34:21.909Z,11.82
2022-10-11T17:36:35.133Z,12.02
2022-10-11T17:38:45.130Z,10.93
2022-10-11T17:41:01.221Z,11.73
2022-10-11T17:43:08.045Z,11.25
2022-10-11T17:45:19.781Z,11.25
2022-10-11T17:47:27.680Z,12.27
2022-10-11T17:49:37.064Z,11.77
2022-10-11T17:51:46.401Z,12.30
2022-10-11T17:53:53.630Z,11.90
2022-10-11T17:56:00.657Z,12.07
2022-10-11T17:58:07.326Z,12.30
2022-10-11T18:00:15.686Z,13.20
2022-10-11T18:02:22.817Z,12.30
2022-10-11T18:04:31.072Z,12.15
2022-10-11T18:06:44.194Z,12.43
2022-10-11T18:08:53.272Z,12.75
2022-10-11T18:11:00.093Z,12.98
2022-10-11T18:13:11.980Z,12.82
2022-10-11T18:15:21.522Z,13.70
2022-10-11T18:17:34.028Z,13.05
2022-10-11T18:19:41.212Z,13.32
2022-10-11T18:21:48.698Z,13.60
2022-10-11T18:23:57.367Z,13.02
2022-10-11T18:26:12.902Z,13.50
2022-10-11T18:28:20.248Z,12.95
2022-10-11T18:30:27.256Z,13.48
2022-10-11T18:32:34.386Z,12.80
2022-10-11T18:34:41.311Z,13.35
2022-10-11T18:36:48.495Z,11.90
2022-10-11T18:38:59.975Z,12.25
2022-10-11T18:41:10.640Z,12.55
2022-10-11T18:43:17.668Z,12.52
2022-10-11T18:45:24.644Z,12.35
2022-10-11T18:47:31.674Z,11.73
2022-10-11T18:49:38.649Z,12.88
2022-10-11T18:51:48.953Z,12.88
2022-10-11T18:53:59.616Z,12.05
2022-10-11T18:56:08.218Z,12.23
2022-10-11T18:58:15.313Z,12.95
2022-10-11T19:00:40.051Z,13.23
2022-10-11T19:02:47.341Z,12.90
2022-10-11T19:04:55.390Z,12.80
2022-10-11T19:07:02.265Z,11.93
2022-10-11T19:09:12.930Z,12.25
2022-10-11T19:11:23.181Z,11.95
2022-10-11T19:13:30.059Z,12.07
2022-10-11T19:15:38.941Z,12.35
2022-10-11T19:17:45.750Z,11.82
2022-10-11T19:19:53.085Z,11.98
2022-10-11T19:22:00.267Z,12.05
2022-10-11T19:24:07.912Z,11.85
2022-10-11T19:26:18.782Z,12.18
2022-10-11T19:28:26.009Z,12.25
2022-10-11T19:30:34.678Z,11.70
2022-10-11T19:32:41.807Z,11.40
2022-10-11T19:34:48.835Z,12.38
2022-10-11T19:36:56.017Z,11.93
2022-10-11T19:39:02.791Z,12.40
2022-10-11T19:41:10.077Z,13.00
2022-10-11T19:43:18.791Z,12.52
2022-10-11T19:45:25.871Z,11.55
2022-10-11T19:47:33.148Z,12.45
2022-10-11T19:49:40.797Z,12.10
2022-10-11T19:51:47.673Z,12.43
2022-10-11T19:53:59.720Z,12.05
2022-10-11T19:58:13.619Z,11.82
2022-10-11T20:00:22.799Z,12.43
2022-10-11T20:02:30.031Z,12.10
2022-10-11T20:04:53.195Z,11.90
2022-10-11T20:07:00.268Z,11.43
2022-10-11T20:11:34.649Z,11.25
2022-10-11T20:13:42.344Z,12.50
2022-10-11T20:15:51.264Z,11.82
2022-10-11T20:17:58.292Z,11.55
2022-10-11T20:20:05.319Z,12.13
2022-10-11T20:22:12.091Z,11.45
2022-10-11T20:24:19.224Z,11.32
2022-10-11T20:26:26.967Z,12.25
2022-10-11T20:28:35.565Z,11.85
2022-10-11T20:30:46.198Z,11.70
2022-10-11T20:32:54.913Z,13.23
2022-10-11T20:35:01.788Z,12.20
2022-10-11T20:37:08.712Z,11.65
2022-10-11T20:39:16.304Z,12.00
2022-10-11T20:41:25.174Z,11.85
2022-10-11T20:43:32.048Z,11.90
2022-10-11T20:45:39.078Z,12.93
2022-10-11T20:47:45.798Z,12.25
2022-10-11T20:49:54.875Z,12.75
2022-10-11T20:52:02.005Z,12.45
2022-10-11T20:54:09.594Z,13.05
2022-10-11T20:56:18.579Z,12.35
2022-10-11T20:58:25.955Z,12.35
2022-10-11T21:00:32.626Z,12.63
2022-10-11T21:02:39.806Z,12.27
2022-10-11T21:04:46.834Z,12.48
2022-10-11T21:06:55.451Z,12.88
2022-10-11T21:09:02.733Z,12.98
2022-10-11T21:11:10.430Z,12.30
2022-10-11T21:13:17.353Z,12.30
2022-10-11T21:15:24.432Z,13.20
2022-10-11T21:17:31.357Z,12.20
2022-10-11T21:19:38.234Z,12.55
2022-10-11T21:21:49.516Z,11.80
2022-10-11T21:24:02.134Z,12.10
2022-10-11T21:26:10.736Z,12.00
2022-10-11T21:28:17.887Z,12.55
2022-10-11T21:30:24.791Z,12.77
2022-10-11T21:32:32.206Z,12.55
2022-10-11T21:34:39.258Z,12.10
2022-10-11T21:36:46.181Z,12.23
2022-10-11T21:38:54.255Z,12.50
2022-10-11T21:41:04.949Z,11.98
2022-10-11T21:43:11.822Z,12.70
2022-10-11T21:45:18.697Z,13.27
2022-10-11T21:47:25.417Z,12.98
2022-10-11T21:49:33.059Z,12.82
2022-10-11T21:51:40.036Z,12.85
2022-10-11T21:53:46.910Z,11.85
2022-10-11T21:55:59.111Z,11.50
2022-10-11T21:58:09.267Z,12.38
2022-10-11T22:00:17.109Z,12.38
2022-10-11T22:02:23.880Z,12.68
2022-10-11T22:04:31.011Z,12.80
2022-10-11T22:06:38.296Z,12.13
2022-10-11T22:08:45.476Z,12.88
2022-10-11T22:10:57.985Z,11.90
2022-10-11T22:13:06.495Z,11.93
2022-10-11T22:15:14.192Z,12.10
2022-10-11T22:17:21.012Z,12.80
2022-10-11T22:19:28.091Z,12.38
2022-10-11T22:21:34.967Z,12.32
2022-10-11T22:23:41.943Z,12.32
2022-10-11T22:25:49.278Z,12.40
2022-10-11T22:27:56.205Z,12.45
2022-10-11T22:30:04.819Z,13.07
2022-10-11T22:32:11.693Z,12.65
2022-10-11T22:34:18.722Z,12.43
2022-10-11T22:36:26.620Z,12.50
2022-10-11T22:38:33.699Z,11.95
2022-10-11T22:40:44.054Z,12.38
2022-10-11T22:42:51.340Z,11.05
2022-10-11T22:44:58.213Z,11.90
2022-10-11T22:47:07.033Z,11.48
2022-10-11T22:49:14.166Z,12.32
2022-10-11T22:51:20.938Z,12.30
2022-10-11T22:53:28.275Z,12.00
2022-10-11T22:55:35.200Z,11.98
2022-10-11T22:57:42.123Z,12.30
2022-10-11T22:59:48.894Z,12.63
2022-10-11T23:01:56.026Z,12.38
2022-10-11T23:04:04.517Z,12.05
2022-10-11T23:06:11.565Z,12.40
2022-10-11T23:08:18.337Z,13.10
2022-10-11T23:10:25.118Z,13.38
2022-10-11T23:12:31.935Z,13.73
2022-10-11T23:14:39.069Z,13.68
2022-10-11T23:16:46.040Z,13.55
2022-10-11T23:18:56.141Z,13.70
2022-10-11T23:21:06.292Z,14.13
2022-10-11T23:25:21.780Z,15.85
2022-10-11T23:27:28.760Z,15.90
2022-10-11T23:29:36.450Z,16.30
2022-10-11T23:31:43.222Z,16.27
2022-10-11T23:33:51.023Z,16.92
2022-10-11T23:35:57.893Z,18.08
2022-10-11T23:38:06.614Z,17.40
2022-10-11T23:40:14.048Z,18.15
2022-10-11T23:42:20.923Z,17.55
2022-10-11T23:44:27.746Z,18.40
2022-10-11T23:46:34.883Z,18.20
2022-10-11T23:48:41.495Z,18.67
2022-10-11T23:50:48.934Z,17.77
2022-10-11T23:52:55.653Z,15.52
2022-10-11T23:55:04.221Z,15.27
2022-10-11T23:57:11.142Z,14.10
2022-10-11T23:59:18.120Z,13.70
